createdAt,value
2023-02-02T00:00:18.121Z,5.20
2023-02-02T00:02:52.849Z,5.20
2023-02-02T00:05:23.916Z,5.20
2023-02-02T00:07:57.687Z,5.20
2023-02-02T00:10:26.399Z,5.20
2023-02-02T00:12:58.809Z,5.20
2023-02-02T00:15:26.946Z,5.20
2023-02-02T00:17:54.972Z,5.20
2023-02-02T00:20:24.098Z,5.20
2023-02-02T00:22:51.121Z,5.20
2023-02-02T00:25:18.059Z,5.20
2023-02-02T00:27:45.659Z,5.20
2023-02-02T00:30:14.628Z,5.30
2023-02-02T00:32:43.500Z,5.20
2023-02-02T00:35:13.977Z,5.30
2023-02-02T00:37:42.910Z,5.30
2023-02-02T00:40:13.449Z,5.30
2023-02-02T00:42:44.114Z,5.30
2023-02-02T00:45:18.673Z,5.30
2023-02-02T00:47:50.411Z,5.40
2023-02-02T00:50:22.099Z,5.40
2023-02-02T00:52:51.874Z,5.40
2023-02-02T00:55:25.604Z,5.40
2023-02-02T00:57:55.997Z,5.40
2023-02-02T01:00:27.505Z,5.40
2023-02-02T01:03:00.241Z,5.50
2023-02-02T01:05:28.171Z,5.40
2023-02-02T01:07:58.140Z,5.40
2023-02-02T01:10:25.819Z,5.50
2023-02-02T01:12:56.610Z,5.50
2023-02-02T01:15:29.281Z,5.50
2023-02-02T01:18:00.365Z,5.50
2023-02-02T01:20:34.079Z,5.50
2023-02-02T01:23:05.265Z,5.50
2023-02-02T01:25:40.171Z,5.50
2023-02-02T01:28:14.639Z,5.50
2023-02-02T01:30:43.349Z,5.50
2023-02-02T01:33:11.772Z,5.40
2023-02-02T01:35:47.494Z,5.40
2023-02-02T01:38:17.304Z,5.40
2023-02-02T01:40:53.603Z,5.40
2023-02-02T01:43:50.505Z,5.40
2023-02-02T01:46:22.570Z,5.40
2023-02-02T01:49:08.015Z,5.40
2023-02-02T01:51:53.751Z,5.40
2023-02-02T01:54:35.482Z,5.40
2023-02-02T01:57:52.082Z,5.40
2023-02-02T02:00:25.344Z,5.40
2023-02-02T02:02:55.497Z,5.40
2023-02-02T02:05:31.754Z,5.40
2023-02-02T02:08:27.997Z,5.40
2023-02-02T02:11:00.301Z,5.40
2023-02-02T02:14:02.938Z,5.40
2023-02-02T02:16:58.492Z,5.40
2023-02-02T02:20:18.063Z,5.40
2023-02-02T02:23:44.409Z,5.40
2023-02-02T02:27:19.466Z,5.40
2023-02-02T02:33:35.454Z,5.40
2023-02-02T02:37:15.254Z,5.40
2023-02-02T02:40:03.056Z,5.50
2023-02-02T02:42:42.777Z,5.40
2023-02-02T02:45:28.349Z,5.50
2023-02-02T02:48:07.203Z,5.50
2023-02-02T02:50:37.702Z,5.50
2023-02-02T02:53:32.811Z,5.50
2023-02-02T02:56:42.249Z,5.50
2023-02-02T02:59:42.800Z,5.50
2023-02-02T03:02:24.618Z,5.50
2023-02-02T03:05:04.290Z,5.50
2023-02-02T03:07:38.534Z,5.50
2023-02-02T03:10:07.942Z,5.50
2023-02-02T03:12:43.183Z,5.50
2023-02-02T03:15:10.801Z,5.50
2023-02-02T03:17:38.386Z,5.50
2023-02-02T03:20:08.556Z,5.50
2023-02-02T03:22:35.899Z,5.50
2023-02-02T03:25:03.317Z,5.50
2023-02-02T03:27:30.819Z,5.50
2023-02-02T03:30:07.964Z,5.50
2023-02-02T03:32:43.469Z,5.50
2023-02-02T03:35:22.319Z,5.50
2023-02-02T03:38:00.569Z,5.50
2023-02-02T03:40:32.207Z,5.50
2023-02-02T03:43:01.451Z,5.50
2023-02-02T03:45:35.942Z,5.50
2023-02-02T03:48:17.937Z,5.50
2023-02-02T03:50:51.622Z,5.40
2023-02-02T03:53:25.266Z,5.40
2023-02-02T03:55:57.778Z,5.40
2023-02-02T03:58:27.597Z,5.50
2023-02-02T04:01:00.384Z,5.40
2023-02-02T04:03:29.297Z,5.50
2023-02-02T04:05:57.141Z,5.50
2023-02-02T04:08:25.008Z,5.50
2023-02-02T04:10:54.502Z,5.50
2023-02-02T04:13:30.566Z,5.50
2023-02-02T04:16:08.600Z,5.50
2023-02-02T04:18:44.514Z,5.50
2023-02-02T04:27:20.881Z,5.40
2023-02-02T04:29:49.375Z,5.40
2023-02-02T04:32:18.529Z,5.40
2023-02-02T04:34:46.400Z,5.40
2023-02-02T04:37:13.640Z,5.40
2023-02-02T04:39:40.914Z,5.50
2023-02-02T04:42:07.949Z,5.40
2023-02-02T04:44:35.280Z,5.50
2023-02-02T04:47:02.339Z,5.50
2023-02-02T04:49:29.362Z,5.50
2023-02-02T04:51:56.301Z,5.50
2023-02-02T04:54:23.372Z,5.50
2023-02-02T04:56:50.409Z,5.50
2023-02-02T04:59:17.449Z,5.50
2023-02-02T05:01:44.527Z,5.50
2023-02-02T05:04:12.485Z,5.50
2023-02-02T05:06:39.633Z,5.50
2023-02-02T05:09:07.658Z,5.50
2023-02-02T05:11:36.104Z,5.50
2023-02-02T05:14:04.945Z,5.50
2023-02-02T05:16:33.671Z,5.60
2023-02-02T05:19:05.308Z,5.60
2023-02-02T05:21:33.761Z,5.60
2023-02-02T05:24:03.425Z,5.60
2023-02-02T05:26:31.377Z,5.60
2023-02-02T05:28:58.861Z,5.60
2023-02-02T05:31:26.240Z,5.60
2023-02-02T05:33:54.964Z,5.60
2023-02-02T05:36:22.311Z,5.60
2023-02-02T05:38:49.298Z,5.60
2023-02-02T05:41:16.315Z,5.60
2023-02-02T05:43:43.250Z,5.60
2023-02-02T05:46:10.681Z,5.60
2023-02-02T05:48:40.535Z,5.60
2023-02-02T05:51:15.305Z,5.70
2023-02-02T05:53:44.967Z,5.70
2023-02-02T05:56:13.214Z,5.70
2023-02-02T05:58:40.135Z,5.70
2023-02-02T06:01:07.320Z,5.70
2023-02-02T06:03:34.774Z,5.70
2023-02-02T06:06:02.035Z,5.70
2023-02-02T06:08:29.248Z,5.70
2023-02-02T06:10:56.425Z,5.70
2023-02-02T06:13:23.373Z,5.70
2023-02-02T06:15:50.392Z,5.70
2023-02-02T06:18:17.441Z,5.70
2023-02-02T06:20:44.324Z,5.70
2023-02-02T06:23:11.150Z,5.70
2023-02-02T06:25:38.078Z,5.70
2023-02-02T06:28:04.961Z,5.70
2023-02-02T06:30:31.924Z,5.70
2023-02-02T06:33:00.048Z,5.80
2023-02-02T06:35:27.349Z,5.70
2023-02-02T06:37:55.388Z,5.70
2023-02-02T06:40:22.221Z,5.80
2023-02-02T06:42:55.039Z,5.80
2023-02-02T06:45:21.911Z,5.80
2023-02-02T06:47:48.735Z,5.80
2023-02-02T06:50:18.706Z,5.70
2023-02-02T06:52:52.428Z,5.70
2023-02-02T06:55:25.609Z,5.70
2023-02-02T06:58:03.338Z,5.70
2023-02-02T07:00:30.767Z,5.70
2023-02-02T07:02:57.812Z,5.70
2023-02-02T07:05:26.998Z,5.60
2023-02-02T07:07:54.860Z,5.60
2023-02-02T07:11:09.410Z,5.60
2023-02-02T07:13:08.560Z,5.60
2023-02-02T07:15:41.387Z,5.60
2023-02-02T07:18:10.601Z,5.50
2023-02-02T07:20:37.490Z,5.50
2023-02-02T07:23:04.584Z,5.50
2023-02-02T07:25:32.803Z,5.50
2023-02-02T07:28:01.995Z,5.50
2023-02-02T07:30:30.005Z,5.50
2023-02-02T07:32:57.415Z,5.50
2023-02-02T07:35:24.871Z,5.50
2023-02-02T07:37:56.007Z,5.50
2023-02-02T07:40:22.807Z,5.50
2023-02-02T07:42:49.932Z,5.50
2023-02-02T07:45:27.600Z,5.50
2023-02-02T07:47:59.099Z,5.60
2023-02-02T07:50:27.347Z,5.60
2023-02-02T07:52:54.506Z,5.60
2023-02-02T07:55:21.383Z,5.60
2023-02-02T07:57:48.401Z,5.60
2023-02-02T08:00:15.515Z,5.60
2023-02-02T08:02:42.461Z,5.60
2023-02-02T08:05:10.030Z,5.60
2023-02-02T08:07:36.935Z,5.70
2023-02-02T08:10:03.922Z,5.70
2023-02-02T08:12:33.368Z,5.70
2023-02-02T08:15:00.303Z,5.70
2023-02-02T08:17:27.186Z,5.70
2023-02-02T08:19:54.191Z,5.80
2023-02-02T08:22:21.078Z,5.80
2023-02-02T08:24:48.120Z,5.80
2023-02-02T08:27:18.260Z,5.80
2023-02-02T08:29:46.279Z,5.80
2023-02-02T08:32:13.146Z,5.90
2023-02-02T08:34:40.974Z,5.90
2023-02-02T08:37:07.932Z,6.00
2023-02-02T08:39:35.069Z,6.00
2023-02-02T08:42:02.104Z,6.00
2023-02-02T08:44:45.590Z,6.10
2023-02-02T08:47:15.973Z,6.10
2023-02-02T08:49:42.894Z,6.10
2023-02-02T08:52:09.728Z,6.10
2023-02-02T08:54:36.493Z,6.20
2023-02-02T08:57:03.421Z,6.20
2023-02-02T08:59:30.251Z,6.20
2023-02-02T09:01:57.241Z,6.20
2023-02-02T09:04:24.103Z,6.20
2023-02-02T09:06:50.959Z,6.20
2023-02-02T09:09:17.969Z,6.10
2023-02-02T09:11:44.850Z,6.10
2023-02-02T09:14:14.096Z,6.20
2023-02-02T09:16:43.403Z,6.10
2023-02-02T09:19:11.753Z,6.20
2023-02-02T09:21:38.673Z,6.20
2023-02-02T09:24:10.690Z,6.20
2023-02-02T09:26:38.834Z,6.20
2023-02-02T09:29:06.951Z,6.20
2023-02-02T09:31:36.779Z,6.10
2023-02-02T09:34:11.855Z,6.20
2023-02-02T09:36:40.159Z,6.20
2023-02-02T09:39:07.677Z,6.20
2023-02-02T09:41:40.852Z,6.20
2023-02-02T09:44:21.271Z,6.30
2023-02-02T09:47:18.224Z,6.30
2023-02-02T09:50:02.301Z,6.30
2023-02-02T09:52:42.368Z,6.30
2023-02-02T09:55:22.753Z,6.30
2023-02-02T09:57:54.942Z,6.30
2023-02-02T10:00:31.530Z,6.30
2023-02-02T10:03:11.051Z,6.30
2023-02-02T10:05:56.981Z,6.30
2023-02-02T10:08:35.433Z,6.30
2023-02-02T10:11:21.016Z,6.30
2023-02-02T10:13:50.253Z,6.30
2023-02-02T10:16:21.235Z,6.30
2023-02-02T10:19:03.149Z,6.30
2023-02-02T10:21:52.131Z,6.30
2023-02-02T10:24:25.341Z,6.30
2023-02-02T10:26:56.136Z,6.30
2023-02-02T10:29:25.882Z,6.30
2023-02-02T10:32:41.296Z,6.30
2023-02-02T10:35:20.344Z,6.30
2023-02-02T10:38:06.926Z,6.30
2023-02-02T10:40:52.534Z,6.30
2023-02-02T10:43:47.660Z,6.30
2023-02-02T10:46:25.195Z,6.30
2023-02-02T10:49:12.017Z,6.20
2023-02-02T10:51:41.182Z,6.20
2023-02-02T10:54:56.024Z,6.20
2023-02-02T10:57:31.224Z,6.20
2023-02-02T11:00:13.325Z,6.10
2023-02-02T11:02:42.799Z,6.10
2023-02-02T11:05:42.665Z,6.10
2023-02-02T11:08:14.815Z,6.00
2023-02-02T11:10:44.149Z,6.10
2023-02-02T11:13:23.345Z,6.10
2023-02-02T11:15:50.284Z,6.10
2023-02-02T11:18:28.234Z,6.10
2023-02-02T11:20:55.963Z,6.10
2023-02-02T11:23:27.377Z,6.10
2023-02-02T11:26:00.407Z,6.10
2023-02-02T11:28:31.144Z,6.10
2023-02-02T11:30:58.948Z,6.10
2023-02-02T11:33:34.450Z,6.10
2023-02-02T11:36:05.726Z,6.10
2023-02-02T11:38:33.040Z,6.20
2023-02-02T11:41:09.206Z,6.20
2023-02-02T11:43:53.881Z,6.20
2023-02-02T11:46:32.877Z,6.30
2023-02-02T11:49:03.962Z,6.30
2023-02-02T11:51:32.089Z,6.40
2023-02-02T11:54:26.023Z,6.30
2023-02-02T11:56:55.818Z,6.40
2023-02-02T12:00:07.971Z,6.40
2023-02-02T12:02:34.825Z,6.40
2023-02-02T12:05:10.731Z,6.50
2023-02-02T12:07:37.880Z,6.50
2023-02-02T12:10:23.581Z,6.50
2023-02-02T12:13:15.059Z,6.50
2023-02-02T12:15:52.245Z,6.50
2023-02-02T12:18:38.338Z,6.50
2023-02-02T12:21:07.741Z,6.60
2023-02-02T12:24:00.529Z,6.60
2023-02-02T12:26:41.266Z,6.60
2023-02-02T12:29:34.147Z,6.60
2023-02-02T12:32:24.933Z,6.60
2023-02-02T12:35:29.552Z,6.60
2023-02-02T12:38:33.771Z,6.60
2023-02-02T12:41:33.576Z,6.70
2023-02-02T12:44:10.359Z,6.70
2023-02-02T12:46:55.852Z,6.70
2023-02-02T12:49:31.644Z,6.60
2023-02-02T12:52:21.055Z,6.60
2023-02-02T12:55:06.567Z,6.60
2023-02-02T12:58:13.459Z,6.60
2023-02-02T13:00:43.334Z,6.60
2023-02-02T13:03:25.352Z,6.60
2023-02-02T13:06:02.461Z,6.50
2023-02-02T13:09:06.401Z,6.50
2023-02-02T13:11:42.028Z,6.50
2023-02-02T13:14:16.250Z,6.40
2023-02-02T13:16:53.352Z,6.40
2023-02-02T13:19:32.466Z,6.40
2023-02-02T13:22:02.168Z,6.40
2023-02-02T13:24:31.908Z,6.30
2023-02-02T13:27:02.943Z,6.30
2023-02-02T13:29:47.761Z,6.30
2023-02-02T13:32:21.205Z,6.30
2023-02-02T13:35:05.340Z,6.30
2023-02-02T13:37:42.677Z,6.30
2023-02-02T13:40:32.740Z,6.30
2023-02-02T13:43:11.782Z,6.30
2023-02-02T13:45:46.455Z,6.30
2023-02-02T13:48:25.697Z,6.30
2023-02-02T13:51:24.517Z,6.30
2023-02-02T13:54:10.725Z,6.30
2023-02-02T13:56:47.810Z,6.30
2023-02-02T13:59:34.155Z,6.30
2023-02-02T14:02:02.038Z,6.30
2023-02-02T14:04:31.414Z,6.30
2023-02-02T14:07:07.200Z,6.30
2023-02-02T14:09:37.497Z,6.30
2023-02-02T14:12:07.625Z,6.30
2023-02-02T14:14:37.773Z,6.30
2023-02-02T14:17:19.394Z,6.40
2023-02-02T14:19:58.028Z,6.30
2023-02-02T14:22:45.156Z,6.30
2023-02-02T14:25:33.465Z,6.40
2023-02-02T14:28:03.058Z,6.40
2023-02-02T14:30:35.574Z,6.40
2023-02-02T14:33:20.757Z,6.40
2023-02-02T14:35:47.584Z,6.40
2023-02-02T14:38:39.478Z,6.40
2023-02-02T14:41:52.993Z,6.50
2023-02-02T14:44:19.942Z,6.50
2023-02-02T14:46:49.429Z,6.50
2023-02-02T14:49:20.148Z,6.50
2023-02-02T14:51:55.234Z,6.50
2023-02-02T14:54:37.130Z,6.50
2023-02-02T14:57:25.328Z,6.50
2023-02-02T14:59:55.273Z,6.60
2023-02-02T15:02:30.743Z,6.60
2023-02-02T15:05:38.951Z,6.60
2023-02-02T15:08:24.750Z,6.60
2023-02-02T15:10:58.935Z,6.60
2023-02-02T15:13:38.663Z,6.60
2023-02-02T15:16:14.510Z,6.60
2023-02-02T15:18:45.465Z,6.60
2023-02-02T15:21:22.060Z,6.60
2023-02-02T15:23:49.087Z,6.60
2023-02-02T15:26:37.108Z,6.60
2023-02-02T15:29:13.584Z,6.60
2023-02-02T15:31:45.656Z,6.60
2023-02-02T15:34:40.802Z,6.60
2023-02-02T15:37:12.778Z,6.60
2023-02-02T15:39:50.606Z,6.60
2023-02-02T15:42:41.094Z,6.60
2023-02-02T15:45:27.887Z,6.60
2023-02-02T15:47:59.128Z,6.60
2023-02-02T15:50:27.054Z,6.60
2023-02-02T15:53:02.547Z,6.50
2023-02-02T15:55:42.748Z,6.60
2023-02-02T15:58:44.874Z,6.60
2023-02-02T16:01:24.438Z,6.60
2023-02-02T16:04:24.995Z,6.50
2023-02-02T16:06:52.297Z,6.50
2023-02-02T16:09:32.814Z,6.50
2023-02-02T16:12:08.933Z,6.50
2023-02-02T16:14:50.550Z,6.50
2023-02-02T16:17:33.016Z,6.50
2023-02-02T16:20:04.598Z,6.50
2023-02-02T16:22:32.114Z,6.50
2023-02-02T16:25:03.067Z,6.50
2023-02-02T16:27:33.395Z,6.50
2023-02-02T16:30:05.641Z,6.50
2023-02-02T16:32:35.673Z,6.50
2023-02-02T16:35:06.281Z,6.50
2023-02-02T16:37:36.537Z,6.50
2023-02-02T16:40:27.198Z,6.50
2023-02-02T16:43:15.887Z,6.50
2023-02-02T16:45:51.638Z,6.50
2023-02-02T16:48:27.341Z,6.50
2023-02-02T16:51:15.581Z,6.50
2023-02-02T16:53:56.936Z,6.50
2023-02-02T16:56:29.399Z,6.50
2023-02-02T16:58:59.049Z,6.50
2023-02-02T17:01:33.611Z,6.50
2023-02-02T17:04:01.028Z,6.50
2023-02-02T17:06:38.789Z,6.50
2023-02-02T17:09:41.048Z,6.50
2023-02-02T17:12:32.031Z,6.50
2023-02-02T17:15:34.949Z,6.50
2023-02-02T17:18:04.347Z,6.50
2023-02-02T17:20:32.550Z,6.50
2023-02-02T17:23:03.158Z,6.50
2023-02-02T17:25:40.791Z,6.50
2023-02-02T17:28:13.281Z,6.50
2023-02-02T17:30:50.016Z,6.50
2023-02-02T17:33:18.462Z,6.50
2023-02-02T17:35:55.585Z,6.50
2023-02-02T17:38:24.582Z,6.50
2023-02-02T17:40:52.896Z,6.50
2023-02-02T17:43:22.083Z,6.50
2023-02-02T17:45:49.510Z,6.50
2023-02-02T17:48:16.748Z,6.50
2023-02-02T17:50:46.946Z,6.50
2023-02-02T17:53:24.548Z,6.50
2023-02-02T17:55:52.357Z,6.50
2023-02-02T17:58:19.583Z,6.50
2023-02-02T18:01:00.679Z,6.50
2023-02-02T18:03:36.337Z,6.50
2023-02-02T18:06:17.360Z,6.40
2023-02-02T18:08:56.152Z,6.40
2023-02-02T18:11:23.323Z,6.40
2023-02-02T18:13:53.445Z,6.40
2023-02-02T18:16:21.485Z,6.40
2023-02-02T18:18:48.647Z,6.40
2023-02-02T18:21:15.853Z,6.40
2023-02-02T18:23:42.894Z,6.40
2023-02-02T18:26:26.614Z,6.40
2023-02-02T18:28:54.841Z,6.40
2023-02-02T18:31:24.018Z,6.40
2023-02-02T18:33:51.382Z,6.40
2023-02-02T18:36:23.899Z,6.50
2023-02-02T18:38:51.503Z,6.40
2023-02-02T18:41:52.191Z,6.40
2023-02-02T18:44:24.383Z,6.40
2023-02-02T18:46:51.880Z,6.40
2023-02-02T18:49:19.332Z,6.40
2023-02-02T18:51:47.916Z,6.40
2023-02-02T18:54:20.107Z,6.30
2023-02-02T18:56:53.093Z,6.30
2023-02-02T18:59:20.108Z,6.30
2023-02-02T19:01:55.121Z,6.30
2023-02-02T19:04:22.132Z,6.30
2023-02-02T19:07:07.782Z,6.30
2023-02-02T19:09:37.013Z,6.20
2023-02-02T19:12:14.174Z,6.30
2023-02-02T19:14:43.487Z,6.20
2023-02-02T19:17:24.647Z,6.20
2023-02-02T19:19:51.844Z,6.20
2023-02-02T19:22:23.947Z,6.20
2023-02-02T19:24:50.967Z,6.20
2023-02-02T19:27:26.654Z,6.20
2023-02-02T19:30:03.954Z,6.20
2023-02-02T19:32:33.685Z,6.20
2023-02-02T19:35:04.630Z,6.10
2023-02-02T19:37:33.303Z,6.10
2023-02-02T19:40:09.438Z,6.10
2023-02-02T19:42:49.622Z,6.10
2023-02-02T19:45:37.663Z,6.00
2023-02-02T19:48:25.608Z,6.00
2023-02-02T19:50:53.776Z,6.00
2023-02-02T19:53:30.471Z,5.90
2023-02-02T19:55:57.514Z,5.90
2023-02-02T19:58:28.232Z,6.00
2023-02-02T20:00:58.221Z,6.00
2023-02-02T20:03:42.962Z,6.00
2023-02-02T20:06:19.427Z,6.00
2023-02-02T20:08:46.495Z,6.00
2023-02-02T20:11:42.073Z,6.00
2023-02-02T20:14:18.817Z,6.00
2023-02-02T20:16:51.159Z,5.90
2023-02-02T20:19:24.295Z,5.90
2023-02-02T20:21:52.833Z,5.90
2023-02-02T20:24:24.784Z,5.90
2023-02-02T20:26:55.041Z,5.80
2023-02-02T20:29:26.540Z,5.90
2023-02-02T20:31:56.446Z,5.90
2023-02-02T20:34:32.925Z,5.80
2023-02-02T20:37:12.143Z,5.80
2023-02-02T20:39:52.079Z,5.80
2023-02-02T20:42:19.044Z,5.70
2023-02-02T20:44:45.998Z,5.70
2023-02-02T20:47:16.253Z,5.70
2023-02-02T20:49:43.885Z,5.70
2023-02-02T20:52:18.196Z,5.70
2023-02-02T20:54:45.046Z,5.60
2023-02-02T20:57:11.959Z,5.60
2023-02-02T20:59:41.344Z,5.60
2023-02-02T21:02:08.656Z,5.60
2023-02-02T21:04:35.508Z,5.60
2023-02-02T21:07:02.343Z,5.60
2023-02-02T21:09:29.159Z,5.60
2023-02-02T21:11:56.076Z,5.60
2023-02-02T21:14:23.011Z,5.60
2023-02-02T21:16:49.940Z,5.60
2023-02-02T21:19:16.790Z,5.60
2023-02-02T21:21:47.998Z,5.60
2023-02-02T21:24:15.068Z,5.60
2023-02-02T21:26:42.317Z,5.60
2023-02-02T21:29:11.542Z,5.60
2023-02-02T21:31:40.033Z,5.60
2023-02-02T21:34:16.998Z,5.60
2023-02-02T21:36:46.323Z,5.60
2023-02-02T21:39:22.156Z,5.50
2023-02-02T21:41:51.729Z,5.50
2023-02-02T21:44:21.439Z,5.50
2023-02-02T21:46:51.343Z,5.50
2023-02-02T21:49:27.573Z,5.50
2023-02-02T21:52:00.022Z,5.50
2023-02-02T21:54:30.608Z,5.60
2023-02-02T21:57:06.204Z,5.50
2023-02-02T21:59:40.711Z,5.60
2023-02-02T22:02:38.935Z,5.60
2023-02-02T22:05:25.403Z,5.60
2023-02-02T22:07:53.476Z,5.60
2023-02-02T22:10:38.222Z,5.60
2023-02-02T22:13:20.119Z,5.60
2023-02-02T22:15:49.119Z,5.60
2023-02-02T22:18:24.504Z,5.70
2023-02-02T22:20:53.081Z,5.70
2023-02-02T22:23:22.498Z,5.70
2023-02-02T22:25:53.201Z,5.70
2023-02-02T22:28:26.145Z,5.70
2023-02-02T22:30:53.943Z,5.70
2023-02-02T22:33:23.595Z,5.70
2023-02-02T22:35:50.771Z,5.80
2023-02-02T22:38:20.000Z,5.80
2023-02-02T22:40:47.991Z,5.80
2023-02-02T22:43:16.596Z,5.80
2023-02-02T22:45:44.614Z,5.80
2023-02-02T22:48:12.934Z,5.80
2023-02-02T22:50:40.634Z,5.80
2023-02-02T22:53:07.478Z,5.80
2023-02-02T22:55:34.872Z,5.80
2023-02-02T22:58:01.684Z,5.80
2023-02-02T23:00:30.792Z,5.70
2023-02-02T23:02:57.731Z,5.80
2023-02-02T23:05:25.983Z,5.80
2023-02-02T23:07:53.842Z,5.70
2023-02-02T23:10:26.680Z,5.70
2023-02-02T23:12:55.136Z,5.70
2023-02-02T23:15:22.671Z,5.70
2023-02-02T23:17:50.102Z,5.70
2023-02-02T23:20:17.622Z,5.70
2023-02-02T23:22:44.848Z,5.70
2023-02-02T23:25:12.964Z,5.70
2023-02-02T23:27:40.207Z,5.70
2023-02-02T23:30:08.938Z,5.70
2023-02-02T23:32:35.935Z,5.70
2023-02-02T23:35:03.414Z,5.70
2023-02-02T23:37:30.442Z,5.70
2023-02-02T23:39:57.378Z,5.70
2023-02-02T23:42:25.665Z,5.70
2023-02-02T23:44:52.978Z,5.70
2023-02-02T23:47:20.067Z,5.70
2023-02-02T23:49:47.194Z,5.60
2023-02-02T23:52:14.776Z,5.60
2023-02-02T23:54:42.209Z,5.70
2023-02-02T23:57:09.675Z,5.60
2023-02-02T23:59:36.649Z,5.60
